createdAt,value
2023-05-05T00:01:30.713Z,16.18
2023-05-05T00:03:58.046Z,16.16
2023-05-05T00:06:24.468Z,16.10
2023-05-05T00:08:50.918Z,16.05
2023-05-05T00:11:17.421Z,16.03
2023-05-05T00:13:43.867Z,15.93
2023-05-05T00:16:10.523Z,15.95
2023-05-05T00:18:37.525Z,15.87
2023-05-05T00:21:04.431Z,15.87
2023-05-05T00:23:30.940Z,15.86
2023-05-05T00:25:57.360Z,15.87
2023-05-05T00:28:23.858Z,15.89
2023-05-05T00:30:50.464Z,15.87
2023-05-05T00:33:17.179Z,15.88
2023-05-05T00:35:43.615Z,15.84
2023-05-05T00:38:10.257Z,15.82
2023-05-05T00:40:37.945Z,15.83
2023-05-05T00:43:04.401Z,15.82
2023-05-05T00:45:30.983Z,15.81
2023-05-05T00:47:59.286Z,15.77
2023-05-05T00:50:28.733Z,15.74
2023-05-05T00:53:00.360Z,15.73
2023-05-05T00:55:27.862Z,15.73
2023-05-05T00:57:54.331Z,15.73
2023-05-05T01:00:20.846Z,15.73
2023-05-05T01:02:47.409Z,15.73
2023-05-05T01:05:16.081Z,15.69
2023-05-05T01:08:11.745Z,15.69
2023-05-05T01:10:43.238Z,15.70
2023-05-05T01:13:50.110Z,15.69
2023-05-05T01:16:28.810Z,15.70
2023-05-05T01:19:20.463Z,15.74
2023-05-05T01:21:56.369Z,15.75
2023-05-05T01:25:03.805Z,15.77
2023-05-05T01:27:56.000Z,15.81
2023-05-05T01:31:00.570Z,15.84
2023-05-05T01:33:31.546Z,15.86
2023-05-05T01:36:10.476Z,15.87
2023-05-05T01:38:41.181Z,15.85
2023-05-05T01:41:24.172Z,15.85
2023-05-05T01:43:52.707Z,15.87
2023-05-05T01:46:21.768Z,15.89
2023-05-05T01:48:48.972Z,15.89
2023-05-05T01:51:18.008Z,15.90
2023-05-05T01:53:47.090Z,15.88
2023-05-05T01:56:15.698Z,15.88
2023-05-05T01:58:49.446Z,15.91
2023-05-05T02:01:18.406Z,15.88
2023-05-05T02:03:47.359Z,15.86
2023-05-05T02:06:16.208Z,15.88
2023-05-05T02:08:44.644Z,15.89
2023-05-05T02:11:12.367Z,15.88
2023-05-05T02:13:42.147Z,15.89
2023-05-05T02:16:09.602Z,15.90
2023-05-05T02:18:37.461Z,15.90
2023-05-05T02:21:04.444Z,15.91
2023-05-05T02:23:31.330Z,15.91
2023-05-05T02:26:12.566Z,15.90
2023-05-05T02:28:42.339Z,15.81
2023-05-05T02:31:10.801Z,15.75
2023-05-05T02:33:40.291Z,15.69
2023-05-05T02:36:19.601Z,15.66
2023-05-05T02:38:48.594Z,15.62
2023-05-05T02:41:18.738Z,15.56
2023-05-05T02:43:48.554Z,15.52
2023-05-05T02:46:16.020Z,15.50
2023-05-05T02:48:42.481Z,15.47
2023-05-05T02:51:08.974Z,15.42
2023-05-05T02:53:35.561Z,15.36
2023-05-05T02:56:08.055Z,15.29
2023-05-05T02:58:44.096Z,15.19
2023-05-05T03:01:25.772Z,15.14
2023-05-05T03:04:12.055Z,15.07
2023-05-05T03:06:45.573Z,15.01
2023-05-05T03:09:17.021Z,14.94
2023-05-05T03:11:54.690Z,14.88
2023-05-05T03:14:22.242Z,14.80
2023-05-05T03:16:49.498Z,14.76
2023-05-05T03:19:18.648Z,14.70
2023-05-05T03:21:45.682Z,14.67
2023-05-05T03:24:16.365Z,14.63
2023-05-05T03:26:44.136Z,14.58
2023-05-05T03:29:10.829Z,14.54
2023-05-05T03:31:37.442Z,14.50
2023-05-05T03:34:04.154Z,14.46
2023-05-05T03:36:30.822Z,14.42
2023-05-05T03:38:58.049Z,14.35
2023-05-05T03:41:25.028Z,14.29
2023-05-05T03:43:51.588Z,14.27
2023-05-05T03:46:18.175Z,14.27
2023-05-05T03:48:44.846Z,14.27
2023-05-05T03:51:12.723Z,14.24
2023-05-05T03:53:39.316Z,14.22
2023-05-05T03:56:05.795Z,14.18
2023-05-05T03:58:32.355Z,14.16
2023-05-05T04:00:58.909Z,14.16
2023-05-05T04:03:25.578Z,14.13
2023-05-05T04:05:52.160Z,14.14
2023-05-05T04:08:18.572Z,14.12
2023-05-05T04:10:45.696Z,14.11
2023-05-05T04:13:12.234Z,14.09
2023-05-05T04:15:43.799Z,14.08
2023-05-05T04:18:10.330Z,14.06
2023-05-05T04:20:36.808Z,14.06
2023-05-05T04:23:03.326Z,14.04
2023-05-05T04:25:29.788Z,13.99
2023-05-05T04:27:56.370Z,13.97
2023-05-05T04:30:22.827Z,13.92
2023-05-05T04:32:49.254Z,13.93
2023-05-05T04:35:15.705Z,13.89
2023-05-05T04:37:42.166Z,13.88
2023-05-05T04:40:09.500Z,13.87
2023-05-05T04:42:36.629Z,13.86
2023-05-05T04:45:03.939Z,13.89
2023-05-05T04:47:30.483Z,13.90
2023-05-05T04:49:57.108Z,13.93
2023-05-05T04:52:23.574Z,13.96
2023-05-05T04:54:50.020Z,13.96
2023-05-05T04:57:16.425Z,13.98
2023-05-05T04:59:42.846Z,14.01
2023-05-05T05:02:09.373Z,14.01
2023-05-05T05:04:35.944Z,14.00
2023-05-05T05:07:02.522Z,14.00
2023-05-05T05:09:29.038Z,13.98
2023-05-05T05:12:00.527Z,14.03
2023-05-05T05:14:28.141Z,14.04
2023-05-05T05:16:54.872Z,14.08
2023-05-05T05:19:21.456Z,14.13
2023-05-05T05:21:47.861Z,14.21
2023-05-05T05:24:14.291Z,14.29
2023-05-05T05:26:40.728Z,14.33
2023-05-05T05:29:07.194Z,14.49
2023-05-05T05:31:34.503Z,14.71
2023-05-05T05:34:01.150Z,15.10
2023-05-05T05:36:27.633Z,15.75
2023-05-05T05:38:54.096Z,16.38
2023-05-05T05:41:21.641Z,17.24
2023-05-05T05:43:48.113Z,18.21
2023-05-05T05:46:14.761Z,19.00
2023-05-05T05:48:41.382Z,19.28
2023-05-05T05:51:07.815Z,19.54
2023-05-05T05:53:34.337Z,19.63
2023-05-05T05:56:01.539Z,19.36
2023-05-05T05:58:27.959Z,19.21
2023-05-05T06:00:54.612Z,18.93
2023-05-05T06:05:47.536Z,17.42
2023-05-05T06:08:14.011Z,16.70
2023-05-05T06:10:41.083Z,16.28
2023-05-05T06:13:07.745Z,16.02
2023-05-05T06:15:34.262Z,15.93
2023-05-05T06:18:00.748Z,15.88
2023-05-05T06:20:32.103Z,15.89
2023-05-05T06:22:58.505Z,15.90
2023-05-05T06:25:24.987Z,15.96
2023-05-05T06:27:51.401Z,15.98
2023-05-05T06:30:18.214Z,16.00
2023-05-05T06:32:44.688Z,16.02
2023-05-05T06:35:11.208Z,16.07
2023-05-05T06:37:37.654Z,16.09
2023-05-05T06:40:04.672Z,16.15
2023-05-05T06:42:32.187Z,16.22
2023-05-05T06:44:58.710Z,16.33
2023-05-05T06:47:25.322Z,16.34
2023-05-05T06:49:51.926Z,16.37
2023-05-05T06:52:18.464Z,16.40
2023-05-05T06:54:45.858Z,16.49
2023-05-05T06:57:12.287Z,16.53
2023-05-05T06:59:38.695Z,16.58
2023-05-05T07:02:05.189Z,16.67
2023-05-05T07:04:31.661Z,16.74
2023-05-05T07:06:58.447Z,16.81
2023-05-05T07:09:24.892Z,16.81
2023-05-05T07:11:51.356Z,16.90
2023-05-05T07:14:17.850Z,16.94
2023-05-05T07:16:44.329Z,16.92
2023-05-05T07:19:10.817Z,16.88
2023-05-05T07:21:37.313Z,16.92
2023-05-05T07:24:04.095Z,16.89
2023-05-05T07:26:30.889Z,16.95
2023-05-05T07:28:58.768Z,16.95
2023-05-05T07:31:26.318Z,16.88
2023-05-05T07:33:52.768Z,16.94
2023-05-05T07:36:19.501Z,17.08
2023-05-05T07:38:46.106Z,17.16
2023-05-05T07:41:19.752Z,17.17
2023-05-05T07:43:46.340Z,17.16
2023-05-05T07:46:13.818Z,17.24
2023-05-05T07:48:41.525Z,17.33
2023-05-05T07:51:08.472Z,17.44
2023-05-05T07:53:35.079Z,17.52
2023-05-05T07:56:01.582Z,17.58
2023-05-05T07:58:28.042Z,17.73
2023-05-05T08:00:54.557Z,17.82
2023-05-05T08:03:24.458Z,17.94
2023-05-05T08:05:55.525Z,18.04
2023-05-05T08:08:24.957Z,18.23
2023-05-05T08:10:53.098Z,18.33
2023-05-05T08:13:19.933Z,18.39
2023-05-05T08:15:47.284Z,18.30
2023-05-05T08:18:14.485Z,18.27
2023-05-05T08:20:41.030Z,18.27
2023-05-05T08:23:07.802Z,18.27
2023-05-05T08:25:34.270Z,18.40
2023-05-05T08:28:00.922Z,18.55
2023-05-05T08:30:27.526Z,18.59
2023-05-05T08:32:54.118Z,18.63
2023-05-05T08:35:20.799Z,18.87
2023-05-05T08:37:47.258Z,18.99
2023-05-05T08:40:14.584Z,18.92
2023-05-05T08:42:42.183Z,18.92
2023-05-05T08:45:10.667Z,18.84
2023-05-05T08:47:38.498Z,18.78
2023-05-05T08:50:08.184Z,18.85
2023-05-05T08:52:40.466Z,18.86
2023-05-05T08:55:17.996Z,18.88
2023-05-05T08:57:51.591Z,18.77
2023-05-05T09:00:24.102Z,18.73
2023-05-05T09:02:50.819Z,18.73
2023-05-05T09:05:18.197Z,18.75
2023-05-05T09:07:45.168Z,18.84
2023-05-05T09:10:12.323Z,18.89
2023-05-05T09:12:42.662Z,18.93
2023-05-05T09:15:11.563Z,18.99
2023-05-05T09:17:39.360Z,18.99
2023-05-05T09:20:10.298Z,18.94
2023-05-05T09:22:40.847Z,18.89
2023-05-05T09:25:11.926Z,18.93
2023-05-05T09:27:42.224Z,18.98
2023-05-05T09:30:10.765Z,19.08
2023-05-05T09:32:48.844Z,19.14
2023-05-05T09:35:18.098Z,19.15
2023-05-05T09:37:44.920Z,19.16
2023-05-05T09:40:13.481Z,19.18
2023-05-05T09:42:40.964Z,19.13
2023-05-05T09:45:19.300Z,19.12
2023-05-05T09:47:47.268Z,19.08
2023-05-05T09:50:16.036Z,18.95
2023-05-05T09:52:43.299Z,18.83
2023-05-05T09:55:18.098Z,18.78
2023-05-05T09:57:44.561Z,18.75
2023-05-05T10:00:12.456Z,18.74
2023-05-05T10:02:39.543Z,18.74
2023-05-05T10:05:09.133Z,18.76
2023-05-05T10:07:37.063Z,18.77
2023-05-05T10:10:05.807Z,18.75
2023-05-05T10:12:35.660Z,18.69
2023-05-05T10:15:06.786Z,18.60
2023-05-05T10:17:38.452Z,18.28
2023-05-05T10:20:09.452Z,17.88
2023-05-05T10:22:36.256Z,17.23
2023-05-05T10:25:15.384Z,16.84
2023-05-05T10:27:50.674Z,16.48
2023-05-05T10:30:22.630Z,16.04
2023-05-05T10:33:08.006Z,15.91
2023-05-05T10:35:44.648Z,15.83
2023-05-05T10:38:13.003Z,15.69
2023-05-05T10:40:45.829Z,15.57
2023-05-05T10:43:14.452Z,15.49
2023-05-05T10:45:42.718Z,15.43
2023-05-05T10:48:18.712Z,15.26
2023-05-05T10:50:53.064Z,15.24
2023-05-05T10:53:27.740Z,15.12
2023-05-05T10:56:02.487Z,15.01
2023-05-05T10:58:46.862Z,14.96
2023-05-05T11:01:32.423Z,14.84
2023-05-05T11:04:23.789Z,14.88
2023-05-05T11:07:10.447Z,14.84
2023-05-05T11:09:55.653Z,14.86
2023-05-05T11:12:22.239Z,14.82
2023-05-05T11:15:26.902Z,14.81
2023-05-05T11:18:02.631Z,14.83
2023-05-05T11:20:40.453Z,14.82
2023-05-05T11:23:06.959Z,14.86
2023-05-05T11:25:36.666Z,14.87
2023-05-05T11:28:11.576Z,14.85
2023-05-05T11:31:01.357Z,14.83
2023-05-05T11:33:38.934Z,14.89
2023-05-05T11:36:07.618Z,14.85
2023-05-05T11:38:40.012Z,14.81
2023-05-05T11:41:13.994Z,14.85
2023-05-05T11:43:41.807Z,14.88
2023-05-05T11:46:15.642Z,14.93
2023-05-05T11:48:50.092Z,14.86
2023-05-05T11:51:19.692Z,14.89
2023-05-05T11:53:48.436Z,14.85
2023-05-05T11:56:20.499Z,14.84
2023-05-05T11:59:04.715Z,14.82
2023-05-05T12:01:31.282Z,14.80
2023-05-05T12:03:58.081Z,14.82
2023-05-05T12:06:24.836Z,14.78
2023-05-05T12:08:51.385Z,14.73
2023-05-05T12:11:18.776Z,14.75
2023-05-05T12:13:46.396Z,14.72
2023-05-05T12:16:14.912Z,14.73
2023-05-05T12:18:42.426Z,14.71
2023-05-05T12:21:19.363Z,14.75
2023-05-05T12:23:46.110Z,14.76
2023-05-05T12:26:29.701Z,14.80
2023-05-05T12:29:00.289Z,14.82
2023-05-05T12:31:37.799Z,14.86
2023-05-05T12:34:05.385Z,14.80
2023-05-05T12:36:35.808Z,14.77
2023-05-05T12:39:05.008Z,14.83
2023-05-05T12:41:32.453Z,14.87
2023-05-05T12:44:00.286Z,14.83
2023-05-05T12:46:29.561Z,14.85
2023-05-05T12:49:05.250Z,14.88
2023-05-05T12:51:33.233Z,14.94
2023-05-05T12:54:11.364Z,14.90
2023-05-05T12:56:40.549Z,14.93
2023-05-05T12:59:09.818Z,14.92
2023-05-05T13:01:37.876Z,14.87
2023-05-05T13:04:14.476Z,14.93
2023-05-05T13:06:43.309Z,14.97
2023-05-05T13:09:22.546Z,14.93
2023-05-05T13:11:49.106Z,14.95
2023-05-05T13:14:15.558Z,15.00
2023-05-05T13:16:42.025Z,14.93
2023-05-05T13:19:08.529Z,14.91
2023-05-05T13:21:35.481Z,14.92
2023-05-05T13:24:18.922Z,14.93
2023-05-05T13:26:47.762Z,14.91
2023-05-05T13:29:14.687Z,14.87
2023-05-05T13:31:41.551Z,14.92
2023-05-05T13:34:08.189Z,14.94
2023-05-05T13:36:34.906Z,14.94
2023-05-05T13:39:01.910Z,14.92
2023-05-05T13:41:28.409Z,14.91
2023-05-05T13:43:54.993Z,14.88
2023-05-05T13:46:21.518Z,14.84
2023-05-05T13:48:47.998Z,14.89
2023-05-05T13:51:15.857Z,14.82
2023-05-05T13:53:46.506Z,14.78
2023-05-05T13:56:13.678Z,14.81
2023-05-05T13:58:40.634Z,14.71
2023-05-05T14:01:07.226Z,14.69
2023-05-05T14:03:33.884Z,14.74
2023-05-05T14:06:00.297Z,14.72
2023-05-05T14:08:26.728Z,14.71
2023-05-05T14:10:53.176Z,14.65
2023-05-05T14:13:19.807Z,14.59
2023-05-05T14:15:47.106Z,14.62
2023-05-05T14:18:13.545Z,14.58
2023-05-05T14:20:39.999Z,14.60
2023-05-05T14:23:06.496Z,14.66
2023-05-05T14:25:32.972Z,14.70
2023-05-05T14:27:59.502Z,14.74
2023-05-05T14:30:25.980Z,14.79
2023-05-05T14:32:52.874Z,14.83
2023-05-05T14:35:19.306Z,14.83
2023-05-05T14:37:45.728Z,14.82
2023-05-05T14:40:12.226Z,14.77
2023-05-05T14:42:38.839Z,14.80
2023-05-05T14:45:06.459Z,14.79
2023-05-05T14:47:33.708Z,14.79
2023-05-05T14:50:00.304Z,14.87
2023-05-05T14:52:26.939Z,14.97
2023-05-05T14:54:53.398Z,15.12
2023-05-05T14:57:19.928Z,15.22
2023-05-05T14:59:46.349Z,15.41
2023-05-05T15:02:12.775Z,15.49
2023-05-05T15:04:39.388Z,15.58
2023-05-05T15:07:05.839Z,15.67
2023-05-05T15:09:32.357Z,15.71
2023-05-05T15:11:59.085Z,15.76
2023-05-05T15:14:26.517Z,15.68
2023-05-05T15:16:52.932Z,15.62
2023-05-05T15:19:19.390Z,15.54
2023-05-05T15:21:45.943Z,15.44
2023-05-05T15:24:12.411Z,15.47
2023-05-05T15:26:38.883Z,15.55
2023-05-05T15:29:05.393Z,15.57
2023-05-05T15:31:32.026Z,15.66
2023-05-05T15:33:58.550Z,15.74
2023-05-05T15:36:25.026Z,15.81
2023-05-05T15:38:51.659Z,15.89
2023-05-05T15:41:18.092Z,16.02
2023-05-05T15:43:44.509Z,16.16
2023-05-05T15:46:11.029Z,16.21
2023-05-05T15:48:37.518Z,16.23
2023-05-05T15:51:04.257Z,16.23
2023-05-05T15:53:30.747Z,16.17
2023-05-05T15:55:57.352Z,16.21
2023-05-05T15:58:23.829Z,16.21
2023-05-05T16:00:50.350Z,16.24
2023-05-05T16:03:17.878Z,16.24
2023-05-05T16:05:44.527Z,16.16
2023-05-05T16:08:10.963Z,16.12
2023-05-05T16:10:37.555Z,16.05
2023-05-05T16:13:04.158Z,16.11
2023-05-05T16:15:30.920Z,16.09
2023-05-05T16:17:57.381Z,16.11
2023-05-05T16:20:24.277Z,16.28
2023-05-05T16:22:51.179Z,16.45
2023-05-05T16:25:19.762Z,16.53
2023-05-05T16:27:46.262Z,16.60
2023-05-05T16:30:15.268Z,16.64
2023-05-05T16:32:42.202Z,16.70
2023-05-05T16:35:09.303Z,16.76
2023-05-05T16:37:36.074Z,16.81
2023-05-05T16:40:05.381Z,17.00
2023-05-05T16:42:31.968Z,17.11
2023-05-05T16:44:58.377Z,17.16
2023-05-05T16:47:25.439Z,17.22
2023-05-05T16:49:52.571Z,17.34
2023-05-05T16:52:19.151Z,17.32
2023-05-05T16:54:46.481Z,17.36
2023-05-05T16:57:13.669Z,17.28
2023-05-05T16:59:41.774Z,17.30
2023-05-05T17:02:08.319Z,17.38
2023-05-05T17:04:34.829Z,17.37
2023-05-05T17:07:01.352Z,17.42
2023-05-05T17:09:27.833Z,17.36
2023-05-05T17:11:54.325Z,17.40
2023-05-05T17:14:20.861Z,17.37
2023-05-05T17:16:47.385Z,17.47
2023-05-05T17:19:13.886Z,17.73
2023-05-05T17:21:40.409Z,18.00
2023-05-05T17:24:08.311Z,18.35
2023-05-05T17:26:34.975Z,18.50
2023-05-05T17:29:01.432Z,18.46
2023-05-05T17:31:27.933Z,18.30
2023-05-05T17:33:54.409Z,18.36
2023-05-05T17:36:21.229Z,18.64
2023-05-05T17:38:47.670Z,18.86
2023-05-05T17:41:14.065Z,18.89
2023-05-05T17:43:40.952Z,18.77
2023-05-05T17:46:07.447Z,18.61
2023-05-05T17:48:34.074Z,18.60
2023-05-05T17:51:00.491Z,18.35
2023-05-05T17:53:27.328Z,18.17
2023-05-05T17:55:54.479Z,18.18
2023-05-05T17:58:20.930Z,17.99
2023-05-05T18:00:47.476Z,17.99
2023-05-05T18:03:14.075Z,18.09
2023-05-05T18:05:40.582Z,17.92
2023-05-05T18:08:07.193Z,17.87
2023-05-05T18:10:33.821Z,17.69
2023-05-05T18:13:00.473Z,17.29
2023-05-05T18:15:27.164Z,16.99
2023-05-05T18:17:53.907Z,16.78
2023-05-05T18:20:20.320Z,16.66
2023-05-05T18:22:47.088Z,16.59
2023-05-05T18:25:13.856Z,16.53
2023-05-05T18:27:41.154Z,16.47
2023-05-05T18:30:08.266Z,16.35
2023-05-05T18:32:34.898Z,16.24
2023-05-05T18:35:01.430Z,16.13
2023-05-05T18:37:28.049Z,16.01
2023-05-05T18:39:54.611Z,15.87
2023-05-05T18:42:21.031Z,15.79
2023-05-05T18:44:47.553Z,15.75
2023-05-05T18:47:13.979Z,15.67
2023-05-05T18:49:40.458Z,15.58
2023-05-05T18:52:06.920Z,15.52
2023-05-05T18:54:34.284Z,15.47
2023-05-05T18:57:01.720Z,15.41
2023-05-05T18:59:28.198Z,15.33
2023-05-05T19:01:54.672Z,15.27
2023-05-05T19:04:30.801Z,15.19
2023-05-05T19:06:58.824Z,15.07
2023-05-05T19:09:25.420Z,14.97
2023-05-05T19:11:51.866Z,14.90
2023-05-05T19:14:18.438Z,14.82
2023-05-05T19:16:44.928Z,14.76
2023-05-05T19:19:11.428Z,14.72
2023-05-05T19:21:38.241Z,14.66
2023-05-05T19:24:08.201Z,14.61
2023-05-05T19:26:34.731Z,14.56
2023-05-05T19:29:01.276Z,14.52
2023-05-05T19:31:27.914Z,14.47
2023-05-05T19:33:59.123Z,14.42
2023-05-05T19:36:25.999Z,14.38
2023-05-05T19:38:52.466Z,14.32
2023-05-05T19:41:19.177Z,14.24
2023-05-05T19:43:49.978Z,14.15
2023-05-05T19:46:17.203Z,14.09
2023-05-05T19:48:44.077Z,14.06
2023-05-05T19:51:10.489Z,14.04
2023-05-05T19:53:36.942Z,13.99
2023-05-05T19:56:04.774Z,13.95
2023-05-05T19:58:34.016Z,13.91
2023-05-05T20:01:00.527Z,13.86
2023-05-05T20:03:27.095Z,13.79
2023-05-05T20:05:53.657Z,13.75
2023-05-05T20:08:20.252Z,13.72
2023-05-05T20:10:46.910Z,13.68
2023-05-05T20:13:13.708Z,13.64
2023-05-05T20:15:40.167Z,13.58
2023-05-05T20:18:06.789Z,13.55
2023-05-05T20:20:33.397Z,13.51
2023-05-05T20:22:59.800Z,13.46
2023-05-05T20:25:26.863Z,13.43
2023-05-05T20:27:53.300Z,13.40
2023-05-05T20:30:20.108Z,13.37
2023-05-05T20:32:46.602Z,13.36
2023-05-05T20:35:13.135Z,13.35
2023-05-05T20:37:39.659Z,13.30
2023-05-05T20:40:07.249Z,13.32
2023-05-05T20:42:33.931Z,13.31
2023-05-05T20:45:00.933Z,13.29
2023-05-05T20:47:27.405Z,13.28
2023-05-05T20:49:54.275Z,13.29
2023-05-05T20:52:20.849Z,13.26
2023-05-05T20:54:47.393Z,13.22
2023-05-05T20:57:13.886Z,13.19
2023-05-05T20:59:40.374Z,13.13
2023-05-05T21:02:07.431Z,13.10
2023-05-05T21:04:33.941Z,13.07
2023-05-05T21:07:00.527Z,13.04
2023-05-05T21:09:27.045Z,13.01
2023-05-05T21:11:53.516Z,12.96
2023-05-05T21:14:20.057Z,12.91
2023-05-05T21:16:46.606Z,12.88
2023-05-05T21:19:13.173Z,12.86
2023-05-05T21:21:39.603Z,12.84
2023-05-05T21:24:08.099Z,12.81
2023-05-05T21:26:34.747Z,12.77
2023-05-05T21:29:01.513Z,12.73
2023-05-05T21:31:27.942Z,12.70
2023-05-05T21:33:54.429Z,12.67
2023-05-05T21:36:21.260Z,12.64
2023-05-05T21:38:47.873Z,12.59
2023-05-05T21:41:14.400Z,12.53
2023-05-05T21:43:41.128Z,12.49
2023-05-05T21:46:07.776Z,12.43
2023-05-05T21:48:34.301Z,12.39
2023-05-05T21:51:00.904Z,12.35
2023-05-05T21:53:27.371Z,12.32
2023-05-05T21:55:53.800Z,12.29
2023-05-05T21:58:20.397Z,12.24
2023-05-05T22:00:49.693Z,12.19
2023-05-05T22:03:16.484Z,12.16
2023-05-05T22:05:43.076Z,12.12
2023-05-05T22:08:09.590Z,12.10
2023-05-05T22:10:36.015Z,12.07
2023-05-05T22:13:02.480Z,12.03
2023-05-05T22:15:35.711Z,12.01
2023-05-05T22:18:09.675Z,12.00
2023-05-05T22:20:37.123Z,11.99
2023-05-05T22:23:03.538Z,11.97
2023-05-05T22:25:29.970Z,11.93
2023-05-05T22:27:56.553Z,11.93
2023-05-05T22:30:22.971Z,11.94
2023-05-05T22:32:49.465Z,11.97
2023-05-05T22:35:15.892Z,12.00
2023-05-05T22:37:42.353Z,11.99
2023-05-05T22:40:10.025Z,12.00
2023-05-05T22:42:36.780Z,11.98
2023-05-05T22:45:03.289Z,11.97
2023-05-05T22:47:30.865Z,11.96
2023-05-05T22:49:57.832Z,11.97
2023-05-05T22:52:25.674Z,11.97
2023-05-05T22:54:52.200Z,11.98
2023-05-05T22:57:18.668Z,11.98
2023-05-05T22:59:45.085Z,12.00
2023-05-05T23:02:11.525Z,12.03
2023-05-05T23:04:37.995Z,12.05
2023-05-05T23:07:04.495Z,12.06
2023-05-05T23:09:30.991Z,12.07
2023-05-05T23:11:57.405Z,12.09
2023-05-05T23:14:23.882Z,12.10
2023-05-05T23:16:50.448Z,12.09
2023-05-05T23:19:16.951Z,12.09
2023-05-05T23:21:52.696Z,12.08
2023-05-05T23:24:20.082Z,12.08
2023-05-05T23:26:46.510Z,12.07
2023-05-05T23:29:12.969Z,12.07
2023-05-05T23:31:39.413Z,12.07
2023-05-05T23:34:05.838Z,12.06
2023-05-05T23:36:32.280Z,12.03
2023-05-05T23:38:58.707Z,12.01
2023-05-05T23:41:25.277Z,12.00
2023-05-05T23:43:51.730Z,11.97
2023-05-05T23:46:18.238Z,11.98
2023-05-05T23:48:44.791Z,11.96
2023-05-05T23:51:11.246Z,11.95
2023-05-05T23:53:37.680Z,11.96
2023-05-05T23:56:04.339Z,11.96
2023-05-05T23:58:30.750Z,11.96
